Webcam Flughafen St.Gallen-Altenrhein

Live-Bilder und Zeitraffer LSZR / ACH.

 

Live aus Altenrhein
LIVE
LSZR 232150Z AUTO 19005KT 160V220 CAVOK 18/12 Q1009
Zeitraffer heute